Time;durP1;ratioP1;P1;durP2;ratioP2;P2;SDS_P1;SDS_P2;PMS_P1;PMS_P2;Temp;Humidity;BMP_temperature;BMP_pressure;BME280_temperature;BME280_humidity;BME280_pressure;Samples;Min_cycle;Max_cycle;Signal;HPM_P1;HPM_P2
2022/05/08 00:02:42;0.00;0.00;0.62;0.00;0.00;0.62;1.87;1.23;;;29.20;24.40;;;;;;2248054;61;20509;-63
2022/05/08 00:05:27;0.00;0.00;0.62;0.00;0.00;0.62;1.73;1.30;;;29.20;24.40;;;;;;2247714;61;20811;-66
2022/05/08 00:08:11;0.00;0.00;0.62;0.00;0.00;0.62;1.43;1.00;;;29.20;24.40;;;;;;2248483;61;20363;-63
2022/05/08 00:10:56;0.00;0.00;0.62;0.00;0.00;0.62;1.57;1.10;;;29.20;24.40;;;;;;2247819;61;20459;-62
2022/05/08 00:13:41;0.00;0.00;0.62;0.00;0.00;0.62;1.80;1.40;;;29.20;24.40;;;;;;2248094;61;20451;-63
2022/05/08 00:16:27;0.00;0.00;0.62;0.00;0.00;0.62;2.50;1.20;;;29.10;24.30;;;;;;2248589;61;20367;-63
2022/05/08 00:19:11;0.00;0.00;0.62;0.00;0.00;0.62;2.30;1.57;;;29.20;24.40;;;;;;2248042;61;20892;-62
2022/05/08 00:21:56;0.00;0.00;0.62;0.00;0.00;0.62;1.60;1.20;;;29.20;24.40;;;;;;2247646;61;20403;-63
2022/05/08 00:24:41;0.00;0.00;0.62;0.00;0.00;0.62;2.17;1.10;;;29.10;24.40;;;;;;2248267;61;20807;-63
2022/05/08 00:27:26;0.00;0.00;0.62;0.00;0.00;0.62;1.80;1.33;;;29.20;24.50;;;;;;2250112;61;20819;-63
2022/05/08 00:30:12;0.00;0.00;0.62;0.00;0.00;0.62;1.47;1.20;;;29.10;24.40;;;;;;2248422;61;20483;-61
2022/05/08 00:32:59;0.00;0.00;0.62;0.00;0.00;0.62;1.87;1.20;;;29.10;24.40;;;;;;2248333;61;20811;-63
2022/05/08 00:35:43;0.00;0.00;0.62;0.00;0.00;0.62;2.53;1.17;;;29.10;24.40;;;;;;2248107;61;20387;-62
2022/05/08 00:38:28;0.00;0.00;0.62;0.00;0.00;0.62;1.70;1.20;;;29.10;24.40;;;;;;2247984;61;20363;-61
2022/05/08 00:41:13;0.00;0.00;0.62;0.00;0.00;0.62;1.60;1.10;;;29.10;24.40;;;;;;2247437;61;20368;-63
2022/05/08 00:43:57;0.00;0.00;0.62;0.00;0.00;0.62;1.70;1.20;;;29.20;24.50;;;;;;2248047;61;20850;-63
2022/05/08 00:46:42;0.00;0.00;0.62;0.00;0.00;0.62;2.03;1.23;;;29.10;24.40;;;;;;2248328;61;20364;-63
2022/05/08 00:49:28;0.00;0.00;0.62;0.00;0.00;0.62;1.40;1.00;;;29.20;24.40;;;;;;2248002;61;20368;-63
2022/05/08 00:52:13;0.00;0.00;0.62;0.00;0.00;0.62;1.83;1.10;;;29.10;24.40;;;;;;2247913;61;20441;-63
2022/05/08 00:54:58;0.00;0.00;0.62;0.00;0.00;0.62;3.10;1.40;;;29.20;24.50;;;;;;2248168;61;20921;-63
2022/05/08 00:57:43;0.00;0.00;0.62;0.00;0.00;0.62;2.17;1.30;;;29.10;24.40;;;;;;2247812;61;20367;-63
2022/05/08 01:00:28;0.00;0.00;0.62;0.00;0.00;0.62;1.37;0.90;;;29.10;24.40;;;;;;2247766;61;20367;-68
2022/05/08 01:03:13;0.00;0.00;0.62;0.00;0.00;0.62;1.80;1.10;;;29.10;24.40;;;;;;2247597;61;20382;-63
2022/05/08 01:06:05;0.00;0.00;0.62;0.00;0.00;0.62;1.60;0.90;;;29.10;24.40;;;;;;2247703;61;20394;-63
2022/05/08 01:08:51;0.00;0.00;0.62;0.00;0.00;0.62;2.10;1.23;;;29.10;24.40;;;;;;2248235;61;20480;-63
2022/05/08 01:11:36;0.00;0.00;0.62;0.00;0.00;0.62;2.27;1.50;;;29.20;24.50;;;;;;2246953;61;20363;-64
2022/05/08 01:14:22;0.00;0.00;0.62;0.00;0.00;0.62;1.90;1.20;;;29.10;24.40;;;;;;2248418;61;20434;-72
2022/05/08 01:17:06;0.00;0.00;0.62;0.00;0.00;0.62;1.60;1.10;;;29.10;24.40;;;;;;2248387;61;20772;-64
2022/05/08 01:19:51;0.00;0.00;0.62;0.00;0.00;0.62;1.60;1.10;;;29.10;24.40;;;;;;2247312;61;20363;-63
2022/05/08 01:22:38;0.00;0.00;0.62;0.00;0.00;0.62;4.70;1.50;;;29.10;24.40;;;;;;2247446;61;20943;-62
2022/05/08 01:25:23;0.00;0.00;0.62;0.00;0.00;0.62;4.20;1.33;;;29.10;24.40;;;;;;2247357;61;20399;-63
2022/05/08 01:28:11;0.00;0.00;0.62;0.00;0.00;0.62;1.83;1.20;;;29.20;24.40;;;;;;2247712;61;20919;-63
2022/05/08 01:30:57;0.00;0.00;0.62;0.00;0.00;0.62;1.70;0.90;;;29.10;24.30;;;;;;2247647;61;20399;-63
2022/05/08 01:33:41;0.00;0.00;0.62;0.00;0.00;0.62;2.30;1.13;;;29.10;24.40;;;;;;2247762;61;21107;-62
2022/05/08 01:36:26;0.00;0.00;0.62;0.00;0.00;0.62;2.40;1.20;;;29.10;24.40;;;;;;2248238;61;20368;-57
2022/05/08 01:39:14;0.00;0.00;0.62;0.00;0.00;0.62;1.43;1.00;;;29.10;24.40;;;;;;2247948;61;20419;-62
2022/05/08 01:41:58;0.00;0.00;0.62;0.00;0.00;0.62;1.73;1.40;;;29.10;24.40;;;;;;2247067;61;20388;-62
2022/05/08 01:44:43;0.00;0.00;0.62;0.00;0.00;0.62;2.13;1.23;;;29.10;24.40;;;;;;2248074;61;20435;-63
2022/05/08 01:50:38;0.00;0.00;0.62;0.00;0.00;0.62;1.63;0.90;;;29.10;24.40;;;;;;2247659;61;20519;-60
2022/05/08 01:53:25;0.00;0.00;0.62;0.00;0.00;0.62;3.60;1.40;;;29.10;24.40;;;;;;2247889;61;20410;-61
2022/05/08 01:56:12;0.00;0.00;0.62;0.00;0.00;0.62;3.40;1.80;;;29.10;24.10;;;;;;2247573;61;20500;-62
2022/05/08 01:58:56;0.00;0.00;0.62;0.00;0.00;0.62;4.40;2.13;;;29.00;23.50;;;;;;2248285;61;20407;-60
2022/05/08 02:01:41;0.00;0.00;0.62;0.00;0.00;0.62;5.37;2.67;;;29.00;23.20;;;;;;2247724;61;20445;-59
2022/05/08 02:04:25;0.00;0.00;0.62;0.00;0.00;0.62;5.50;2.63;;;29.00;22.90;;;;;;2247789;61;21024;-59
2022/05/08 02:07:10;0.00;0.00;0.62;0.00;0.00;0.62;4.73;2.40;;;29.00;22.70;;;;;;2247912;61;20367;-58
2022/05/08 02:09:55;0.00;0.00;0.62;0.00;0.00;0.62;5.87;3.00;;;28.90;22.50;;;;;;2247786;61;20422;-60
2022/05/08 02:12:42;0.00;0.00;0.62;0.00;0.00;0.62;7.07;3.27;;;28.90;22.40;;;;;;2247461;61;20799;-60
2022/05/08 02:15:29;0.00;0.00;0.62;0.00;0.00;0.62;6.60;3.17;;;28.80;22.20;;;;;;2247657;61;20927;-63
2022/05/08 02:18:17;0.00;0.00;0.62;0.00;0.00;0.62;5.73;3.33;;;28.80;22.00;;;;;;2247540;61;20356;-60
2022/05/08 02:21:03;0.00;0.00;0.62;0.00;0.00;0.62;5.27;2.93;;;28.70;21.80;;;;;;2247691;61;20375;-60
2022/05/08 02:23:47;0.00;0.00;0.62;0.00;0.00;0.62;6.00;2.80;;;28.70;21.80;;;;;;2248111;61;20419;-61
2022/05/08 02:26:32;0.00;0.00;0.62;0.00;0.00;0.62;5.37;2.67;;;28.60;21.80;;;;;;2247430;61;20419;-61
2022/05/08 02:29:18;0.00;0.00;0.62;0.00;0.00;0.62;6.00;2.27;;;28.50;21.70;;;;;;2247738;61;20370;-60
2022/05/08 02:32:04;0.00;0.00;0.62;0.00;0.00;0.62;6.60;2.73;;;28.50;21.80;;;;;;2247996;61;20931;-59
2022/05/08 02:34:49;0.00;0.00;0.62;0.00;0.00;0.62;4.70;2.20;;;28.40;21.80;;;;;;2247994;61;20406;-59
2022/05/08 02:37:34;0.00;0.00;0.62;0.00;0.00;0.62;6.67;2.43;;;28.40;21.80;;;;;;2248427;61;20371;-62
2022/05/08 02:40:19;0.00;0.00;0.62;0.00;0.00;0.62;5.63;3.63;;;28.30;21.70;;;;;;2247993;61;20414;-58
2022/05/08 02:43:04;0.00;0.00;0.62;0.00;0.00;0.62;6.30;3.00;;;28.30;21.70;;;;;;2248663;61;20515;-61
2022/05/08 02:45:50;0.00;0.00;0.62;0.00;0.00;0.62;7.57;2.40;;;28.20;21.60;;;;;;2248592;61;20375;-58
2022/05/08 02:48:34;0.00;0.00;0.62;0.00;0.00;0.62;4.30;2.27;;;28.20;21.70;;;;;;2247591;61;20368;-59
2022/05/08 02:51:19;0.00;0.00;0.62;0.00;0.00;0.62;6.63;3.00;;;28.20;21.60;;;;;;2247878;61;20363;-60
2022/05/08 02:54:04;0.00;0.00;0.62;0.00;0.00;0.62;4.30;2.50;;;28.10;21.50;;;;;;2248201;61;20458;-59
2022/05/08 02:59:52;0.00;0.00;0.62;0.00;0.00;0.62;6.20;3.13;;;28.00;21.50;;;;;;2248535;61;21002;-65
2022/05/08 03:02:38;0.00;0.00;0.62;0.00;0.00;0.62;5.20;2.90;;;28.00;21.50;;;;;;2248125;61;20363;-59
2022/05/08 03:05:23;0.00;0.00;0.62;0.00;0.00;0.62;6.33;2.93;;;27.90;21.40;;;;;;2248882;61;20929;-57
2022/05/08 03:08:08;0.00;0.00;0.62;0.00;0.00;0.62;8.20;2.40;;;27.90;21.30;;;;;;2248474;61;20387;-62
2022/05/08 03:13:57;0.00;0.00;0.62;0.00;0.00;0.62;6.47;2.87;;;27.80;21.30;;;;;;2248328;61;20960;-61
2022/05/08 03:16:41;0.00;0.00;0.62;0.00;0.00;0.62;5.70;2.40;;;27.70;21.30;;;;;;2248206;61;20415;-60
2022/05/08 03:19:29;0.00;0.00;0.62;0.00;0.00;0.62;4.60;2.70;;;27.70;21.30;;;;;;2248258;61;20911;-59
2022/05/08 03:22:14;0.00;0.00;0.62;0.00;0.00;0.62;5.90;2.80;;;27.60;21.30;;;;;;2248079;61;20904;-64
2022/05/08 03:24:59;0.00;0.00;0.62;0.00;0.00;0.62;5.80;2.60;;;27.60;21.30;;;;;;2247699;61;20785;-60
2022/05/08 03:27:43;0.00;0.00;0.62;0.00;0.00;0.62;8.90;3.33;;;27.50;21.30;;;;;;2248658;61;20824;-60
2022/05/08 03:30:28;0.00;0.00;0.62;0.00;0.00;0.62;7.30;3.57;;;27.50;21.30;;;;;;2248322;61;20383;-58
2022/05/08 03:33:13;0.00;0.00;0.62;0.00;0.00;0.62;8.47;3.20;;;27.40;21.30;;;;;;2247866;61;20697;-57
2022/05/08 03:35:59;0.00;0.00;0.62;0.00;0.00;0.62;5.30;2.90;;;27.40;21.20;;;;;;2248394;61;20376;-57
2022/05/08 03:38:46;0.00;0.00;0.62;0.00;0.00;0.62;3.67;2.80;;;27.30;21.10;;;;;;2248085;61;20410;-66
2022/05/08 03:41:30;0.00;0.00;0.62;0.00;0.00;0.62;5.33;2.43;;;27.20;21.00;;;;;;2247654;61;20419;-57
2022/05/08 03:44:15;0.00;0.00;0.62;0.00;0.00;0.62;4.47;2.80;;;27.20;21.00;;;;;;2248429;61;20438;-61
2022/05/08 03:46:59;0.00;0.00;0.62;0.00;0.00;0.62;4.53;3.07;;;27.10;21.60;;;;;;2248378;61;20366;-62
2022/05/08 03:49:43;0.00;0.00;0.62;0.00;0.00;0.62;5.30;2.73;;;27.00;21.10;;;;;;2248759;61;20424;-61
2022/05/08 03:52:29;0.00;0.00;0.62;0.00;0.00;0.62;7.80;3.60;;;27.00;21.20;;;;;;2248025;61;20402;-58
2022/05/08 03:55:17;0.00;0.00;0.62;0.00;0.00;0.62;4.97;2.80;;;26.90;21.10;;;;;;2247527;61;20372;-61
2022/05/08 03:58:03;0.00;0.00;0.62;0.00;0.00;0.62;5.37;2.93;;;26.80;21.10;;;;;;2247320;61;20403;-61
2022/05/08 04:00:47;0.00;0.00;0.62;0.00;0.00;0.62;7.03;2.80;;;26.80;21.20;;;;;;2247962;61;20894;-61
2022/05/08 04:03:32;0.00;0.00;0.62;0.00;0.00;0.62;5.80;3.00;;;26.80;21.30;;;;;;2248035;61;20407;-62
2022/05/08 04:06:16;0.00;0.00;0.62;0.00;0.00;0.62;6.77;2.83;;;26.70;21.30;;;;;;2248265;61;20440;-58
2022/05/08 04:09:02;0.00;0.00;0.62;0.00;0.00;0.62;6.37;2.90;;;26.70;21.40;;;;;;2248363;61;20363;-62
2022/05/08 04:11:47;0.00;0.00;0.62;0.00;0.00;0.62;6.90;3.10;;;26.60;21.40;;;;;;2247968;61;20443;-63
2022/05/08 04:14:31;0.00;0.00;0.62;0.00;0.00;0.62;5.50;2.60;;;26.70;21.50;;;;;;2248364;61;20940;-61
2022/05/08 04:17:16;0.00;0.00;0.62;0.00;0.00;0.62;8.37;3.00;;;26.60;21.50;;;;;;2247613;61;20372;-60
2022/05/08 04:20:06;0.00;0.00;0.62;0.00;0.00;0.62;4.90;2.80;;;26.60;21.50;;;;;;2248319;61;20399;-62
2022/05/08 04:25:56;0.00;0.00;0.62;0.00;0.00;0.62;4.70;3.00;;;26.60;21.50;;;;;;2248049;61;20460;-60
2022/05/08 04:28:40;0.00;0.00;0.62;0.00;0.00;0.62;5.03;2.60;;;26.50;21.50;;;;;;2247706;61;20403;-61
2022/05/08 04:31:25;0.00;0.00;0.62;0.00;0.00;0.62;7.07;3.27;;;26.50;21.50;;;;;;2247570;61;20464;-65
2022/05/08 04:34:10;0.00;0.00;0.62;0.00;0.00;0.62;4.40;2.40;;;26.50;21.50;;;;;;2248277;61;20399;-65
2022/05/08 04:36:55;0.00;0.00;0.62;0.00;0.00;0.62;4.87;2.60;;;26.50;21.60;;;;;;2248619;61;20363;-59
2022/05/08 04:39:39;0.00;0.00;0.62;0.00;0.00;0.62;5.70;2.93;;;26.50;21.60;;;;;;2247624;61;20371;-58
2022/05/08 04:42:26;0.00;0.00;0.62;0.00;0.00;0.62;3.30;2.10;;;26.40;21.60;;;;;;2247718;61;20367;-59
2022/05/08 04:45:11;0.00;0.00;0.62;0.00;0.00;0.62;5.00;2.40;;;26.40;21.60;;;;;;2248014;61;20383;-59
2022/05/08 04:47:56;0.00;0.00;0.62;0.00;0.00;0.62;4.80;3.00;;;26.40;21.60;;;;;;2247853;61;21050;-63
2022/05/08 04:50:40;0.00;0.00;0.62;0.00;0.00;0.62;6.37;2.50;;;26.40;21.60;;;;;;2247906;61;20902;-60
2022/05/08 04:53:25;0.00;0.00;0.62;0.00;0.00;0.62;8.83;3.53;;;26.30;21.60;;;;;;2247843;61;20388;-60
2022/05/08 04:56:10;0.00;0.00;0.62;0.00;0.00;0.62;5.37;2.80;;;26.30;21.50;;;;;;2248192;61;20415;-62
2022/05/08 04:58:56;0.00;0.00;0.62;0.00;0.00;0.62;7.40;2.60;;;26.30;21.50;;;;;;2247671;61;20837;-60
2022/05/08 05:01:41;0.00;0.00;0.62;0.00;0.00;0.62;3.30;1.90;;;26.30;21.60;;;;;;2247267;61;20419;-61
2022/05/08 05:04:25;0.00;0.00;0.62;0.00;0.00;0.62;7.27;3.07;;;26.20;21.60;;;;;;2247994;61;20423;-62
2022/05/08 05:07:10;0.00;0.00;0.62;0.00;0.00;0.62;6.40;2.70;;;26.20;21.60;;;;;;2247902;61;20820;-60
2022/05/08 05:09:54;0.00;0.00;0.62;0.00;0.00;0.62;7.57;2.43;;;26.20;21.60;;;;;;2247485;61;20364;-60
2022/05/08 05:12:39;0.00;0.00;0.62;0.00;0.00;0.62;4.77;2.60;;;26.10;21.50;;;;;;2247951;61;20395;-62
2022/05/08 05:15:25;0.00;0.00;0.62;0.00;0.00;0.62;7.80;2.83;;;26.10;21.60;;;;;;2247701;61;20431;-59
2022/05/08 05:18:10;0.00;0.00;0.62;0.00;0.00;0.62;3.93;2.73;;;26.10;21.60;;;;;;2247955;61;20505;-62
2022/05/08 05:20:55;0.00;0.00;0.62;0.00;0.00;0.62;5.57;2.80;;;26.00;21.50;;;;;;2247257;61;20946;-59
2022/05/08 05:23:39;0.00;0.00;0.62;0.00;0.00;0.62;6.60;3.00;;;26.00;21.60;;;;;;2246962;61;20383;-62
2022/05/08 05:26:24;0.00;0.00;0.62;0.00;0.00;0.62;5.43;3.20;;;26.00;21.60;;;;;;2248189;61;20363;-60
2022/05/08 05:29:10;0.00;0.00;0.62;0.00;0.00;0.62;5.07;3.03;;;26.00;21.60;;;;;;2247942;61;20367;-60
2022/05/08 05:31:56;0.00;0.00;0.62;0.00;0.00;0.62;3.83;2.30;;;25.90;21.60;;;;;;2246631;61;20518;-56
2022/05/08 05:34:41;0.00;0.00;0.62;0.00;0.00;0.62;5.40;2.90;;;25.90;21.70;;;;;;2247863;61;20442;-58
2022/05/08 05:37:26;0.00;0.00;0.62;0.00;0.00;0.62;6.17;2.67;;;25.90;21.70;;;;;;2247937;61;20448;-60
2022/05/08 05:40:11;0.00;0.00;0.62;0.00;0.00;0.62;6.50;2.50;;;25.90;21.80;;;;;;2247761;61;20522;-58
2022/05/08 05:42:59;0.00;0.00;0.62;0.00;0.00;0.62;5.20;2.63;;;25.80;21.70;;;;;;2248129;61;20374;-59
2022/05/08 05:45:44;0.00;0.00;0.62;0.00;0.00;0.62;4.70;2.73;;;25.80;21.70;;;;;;2247396;61;20364;-59
2022/05/08 05:48:30;0.00;0.00;0.62;0.00;0.00;0.62;6.13;2.70;;;25.80;21.70;;;;;;2247846;61;20364;-60
2022/05/08 05:51:14;0.00;0.00;0.62;0.00;0.00;0.62;4.60;2.53;;;25.80;21.70;;;;;;2247851;61;20418;-61
2022/05/08 05:53:59;0.00;0.00;0.62;0.00;0.00;0.62;8.20;2.87;;;25.80;21.70;;;;;;2247781;61;20394;-55
2022/05/08 05:56:43;0.00;0.00;0.62;0.00;0.00;0.62;3.37;2.10;;;25.80;21.50;;;;;;2248087;61;20496;-59
2022/05/08 05:59:28;0.00;0.00;0.62;0.00;0.00;0.62;5.53;2.13;;;25.80;21.40;;;;;;2247654;61;20415;-63
2022/05/08 06:02:12;0.00;0.00;0.62;0.00;0.00;0.62;4.20;2.17;;;25.80;21.20;;;;;;2247668;61;20938;-61
2022/05/08 06:04:58;0.00;0.00;0.62;0.00;0.00;0.62;4.37;2.03;;;25.80;21.20;;;;;;2248370;61;20355;-62
2022/05/08 06:07:44;0.00;0.00;0.62;0.00;0.00;0.62;6.27;2.53;;;25.70;21.00;;;;;;2248437;61;21012;-61
2022/05/08 06:10:28;0.00;0.00;0.62;0.00;0.00;0.62;5.47;2.00;;;25.70;21.00;;;;;;2247571;61;20368;-61
2022/05/08 06:13:13;0.00;0.00;0.62;0.00;0.00;0.62;5.10;2.20;;;25.70;21.00;;;;;;2248316;61;20395;-61
2022/05/08 06:15:57;0.00;0.00;0.62;0.00;0.00;0.62;7.07;2.50;;;25.60;20.90;;;;;;2248109;61;20452;-63
2022/05/08 06:18:44;0.00;0.00;0.62;0.00;0.00;0.62;4.30;2.40;;;25.60;20.90;;;;;;2248306;61;20498;-58
2022/05/08 06:21:31;0.00;0.00;0.62;0.00;0.00;0.62;5.30;2.00;;;25.60;20.80;;;;;;2248108;61;20418;-60
2022/05/08 06:24:17;0.00;0.00;0.62;0.00;0.00;0.62;5.30;2.60;;;25.50;20.70;;;;;;2248331;61;20864;-61
2022/05/08 06:27:02;0.00;0.00;0.62;0.00;0.00;0.62;6.10;2.20;;;25.50;20.70;;;;;;2248452;61;20423;-60
2022/05/08 06:29:48;0.00;0.00;0.62;0.00;0.00;0.62;4.97;2.17;;;25.50;20.60;;;;;;2248067;61;20372;-58
2022/05/08 06:32:35;0.00;0.00;0.62;0.00;0.00;0.62;4.83;2.00;;;25.40;20.50;;;;;;2247837;61;20375;-60
2022/05/08 06:35:19;0.00;0.00;0.62;0.00;0.00;0.62;7.47;2.10;;;25.40;20.50;;;;;;2248611;61;20815;-57
2022/05/08 06:38:06;0.00;0.00;0.62;0.00;0.00;0.62;10.53;2.27;;;25.30;20.40;;;;;;2247994;61;20364;-61
2022/05/08 06:40:51;0.00;0.00;0.62;0.00;0.00;0.62;4.77;1.40;;;25.30;20.40;;;;;;2248075;61;20376;-55
2022/05/08 06:43:40;0.00;0.00;0.62;0.00;0.00;0.62;4.23;2.17;;;25.20;20.40;;;;;;2248396;61;20399;-60
2022/05/08 06:46:25;0.00;0.00;0.62;0.00;0.00;0.62;4.53;1.97;;;25.20;20.60;;;;;;2248116;61;20402;-58
2022/05/08 06:49:10;0.00;0.00;0.62;0.00;0.00;0.62;4.43;1.83;;;25.20;20.60;;;;;;2248240;61;20912;-57
2022/05/08 06:51:54;0.00;0.00;0.62;0.00;0.00;0.62;4.93;1.90;;;25.10;20.40;;;;;;2248293;61;20932;-57
2022/05/08 06:54:40;0.00;0.00;0.62;0.00;0.00;0.62;5.10;2.20;;;25.10;20.40;;;;;;2248293;61;20932;-57
2022/05/08 06:57:25;0.00;0.00;0.62;0.00;0.00;0.62;6.00;2.10;;;25.00;20.40;;;;;;2248485;61;20996;-54
2022/05/08 07:03:14;0.00;0.00;0.62;0.00;0.00;0.62;4.30;1.90;;;25.00;20.40;;;;;;2248241;61;21015;-58
2022/05/08 07:06:00;0.00;0.00;0.62;0.00;0.00;0.62;5.23;2.50;;;24.90;20.30;;;;;;2248486;61;20828;-56
2022/05/08 07:08:46;0.00;0.00;0.62;0.00;0.00;0.62;4.80;2.60;;;24.90;20.30;;;;;;2248010;61;20669;-55
2022/05/08 07:11:32;0.00;0.00;0.62;0.00;0.00;0.62;4.90;1.90;;;24.80;20.30;;;;;;2247793;61;20936;-58
2022/05/08 07:14:17;0.00;0.00;0.62;0.00;0.00;0.62;3.87;2.20;;;24.80;20.40;;;;;;2248288;61;20431;-59
2022/05/08 07:17:02;0.00;0.00;0.62;0.00;0.00;0.62;4.73;2.40;;;24.70;20.30;;;;;;2248189;61;20411;-57
2022/05/08 07:19:47;0.00;0.00;0.62;0.00;0.00;0.62;4.20;2.00;;;24.70;20.30;;;;;;2248451;61;20452;-62
2022/05/08 07:22:33;0.00;0.00;0.62;0.00;0.00;0.62;7.00;2.70;;;24.60;20.40;;;;;;2247658;61;20442;-59
2022/05/08 07:25:17;0.00;0.00;0.62;0.00;0.00;0.62;5.60;2.60;;;24.60;20.50;;;;;;2248338;61;20375;-62
2022/05/08 07:28:08;0.00;0.00;0.62;0.00;0.00;0.62;3.30;1.80;;;24.50;20.50;;;;;;2248543;61;20467;-57
2022/05/08 07:30:54;0.00;0.00;0.62;0.00;0.00;0.62;6.63;2.77;;;24.50;20.50;;;;;;2247536;61;20414;-56
2022/05/08 07:33:39;0.00;0.00;0.62;0.00;0.00;0.62;3.87;2.17;;;24.50;20.60;;;;;;2247903;61;20443;-60
2022/05/08 07:36:23;0.00;0.00;0.62;0.00;0.00;0.62;6.10;2.57;;;24.50;20.70;;;;;;2248297;61;20368;-61
2022/05/08 07:39:08;0.00;0.00;0.62;0.00;0.00;0.62;6.93;2.57;;;24.40;20.60;;;;;;2248001;61;21024;-61
2022/05/08 07:41:52;0.00;0.00;0.62;0.00;0.00;0.62;6.80;2.40;;;24.40;20.60;;;;;;2247708;61;20455;-56
2022/05/08 07:44:39;0.00;0.00;0.62;0.00;0.00;0.62;5.63;2.30;;;24.30;20.60;;;;;;2247566;61;20598;-58
2022/05/08 07:47:24;0.00;0.00;0.62;0.00;0.00;0.62;3.60;2.33;;;24.30;20.80;;;;;;2246239;61;20383;-57
2022/05/08 07:50:10;0.00;0.00;0.62;0.00;0.00;0.62;4.30;2.47;;;24.30;20.80;;;;;;2244531;61;20368;-61
2022/05/08 07:52:54;0.00;0.00;0.62;0.00;0.00;0.62;3.83;2.10;;;24.30;20.90;;;;;;2244001;61;20440;-55
2022/05/08 07:55:39;0.00;0.00;0.62;0.00;0.00;0.62;7.10;2.23;;;24.30;21.00;;;;;;2244281;61;20880;-64
2022/05/08 07:58:32;0.00;0.00;0.62;0.00;0.00;0.62;3.27;2.40;;;24.30;21.10;;;;;;2248306;61;20771;-61
2022/05/08 08:01:18;0.00;0.00;0.62;0.00;0.00;0.62;4.00;2.50;;;24.30;21.20;;;;;;2247973;61;20360;-62
2022/05/08 08:04:04;0.00;0.00;0.62;0.00;0.00;0.62;2.90;1.60;;;24.30;21.30;;;;;;2248218;61;20387;-66
2022/05/08 08:06:49;0.00;0.00;0.62;0.00;0.00;0.62;3.60;1.77;;;24.30;21.30;;;;;;2248247;61;20363;-66
2022/05/08 08:09:33;0.00;0.00;0.62;0.00;0.00;0.62;4.13;2.73;;;24.30;21.30;;;;;;2247954;61;20422;-63
2022/05/08 08:12:18;0.00;0.00;0.62;0.00;0.00;0.62;3.57;2.70;;;24.30;21.40;;;;;;2247401;61;20379;-66
2022/05/08 08:15:05;0.00;0.00;0.62;0.00;0.00;0.62;3.47;2.10;;;24.30;21.50;;;;;;2248294;61;20460;-63
2022/05/08 08:17:51;0.00;0.00;0.62;0.00;0.00;0.62;4.33;2.00;;;24.30;21.50;;;;;;2248102;61;20446;-63
2022/05/08 08:20:35;0.00;0.00;0.62;0.00;0.00;0.62;3.67;2.27;;;24.40;21.60;;;;;;2248167;61;20510;-66
2022/05/08 08:23:20;0.00;0.00;0.62;0.00;0.00;0.62;4.40;2.10;;;24.40;21.60;;;;;;2247684;61;20408;-65
2022/05/08 08:26:05;0.00;0.00;0.62;0.00;0.00;0.62;3.87;2.17;;;24.40;21.60;;;;;;2248333;61;20375;-65
2022/05/08 08:28:50;0.00;0.00;0.62;0.00;0.00;0.62;3.00;2.03;;;24.40;21.60;;;;;;2247556;61;20368;-61
2022/05/08 08:31:34;0.00;0.00;0.62;0.00;0.00;0.62;6.63;3.10;;;24.40;21.60;;;;;;2247521;61;20442;-62
2022/05/08 08:34:20;0.00;0.00;0.62;0.00;0.00;0.62;3.03;1.90;;;24.40;21.60;;;;;;2248299;61;20402;-67
2022/05/08 08:37:05;0.00;0.00;0.62;0.00;0.00;0.62;3.73;2.20;;;24.50;21.60;;;;;;2248097;61;20843;-59
2022/05/08 08:39:49;0.00;0.00;0.62;0.00;0.00;0.62;3.50;1.87;;;24.50;21.70;;;;;;2247985;61;20866;-58
2022/05/08 08:42:38;0.00;0.00;0.62;0.00;0.00;0.62;4.07;2.43;;;24.50;21.80;;;;;;2248182;61;20790;-58
2022/05/08 08:48:30;0.00;0.00;0.62;0.00;0.00;0.62;2.93;2.10;;;24.60;21.70;;;;;;2248533;61;20426;-68
2022/05/08 08:51:17;0.00;0.00;0.62;0.00;0.00;0.62;4.20;1.87;;;24.60;21.60;;;;;;2247733;61;20492;-65
2022/05/08 08:54:02;0.00;0.00;0.62;0.00;0.00;0.62;2.93;1.80;;;24.60;21.60;;;;;;2247636;61;20407;-68
2022/05/08 08:56:49;0.00;0.00;0.62;0.00;0.00;0.62;2.80;1.87;;;24.60;21.60;;;;;;2248660;61;20427;-65
2022/05/08 08:59:35;0.00;0.00;0.62;0.00;0.00;0.62;3.67;2.30;;;24.60;21.70;;;;;;2248045;61;20380;-64
2022/05/08 09:02:21;0.00;0.00;0.62;0.00;0.00;0.62;2.90;1.70;;;24.60;21.90;;;;;;2247320;61;20368;-64
2022/05/08 09:05:10;0.00;0.00;0.62;0.00;0.00;0.62;5.83;2.30;;;24.70;22.00;;;;;;2248389;61;20768;-67
2022/05/08 09:07:58;0.00;0.00;0.62;0.00;0.00;0.62;2.50;1.80;;;24.70;22.00;;;;;;2248318;61;20875;-66
2022/05/08 09:10:44;0.00;0.00;0.62;0.00;0.00;0.62;3.60;2.00;;;24.70;22.00;;;;;;2248180;61;20783;-67
2022/05/08 09:13:31;0.00;0.00;0.62;0.00;0.00;0.62;2.93;2.00;;;24.70;22.50;;;;;;2253039;61;20818;-60
2022/05/08 09:16:15;0.00;0.00;0.62;0.00;0.00;0.62;3.20;1.87;;;24.80;22.10;;;;;;2245127;61;20376;-61
2022/05/08 09:19:00;0.00;0.00;0.62;0.00;0.00;0.62;3.97;2.30;;;24.80;22.10;;;;;;2244502;61;20399;-63
2022/05/08 09:21:58;0.00;0.00;0.62;0.00;0.00;0.62;3.30;2.10;;;24.90;22.20;;;;;;2243711;61;20697;-59
2022/05/08 09:24:54;0.00;0.00;0.62;0.00;0.00;0.62;2.90;1.83;;;24.90;22.20;;;;;;2244113;61;20778;-61
2022/05/08 09:27:38;0.00;0.00;0.62;0.00;0.00;0.62;3.70;2.20;;;24.90;22.20;;;;;;2244031;61;20457;-62
2022/05/08 09:30:26;0.00;0.00;0.62;0.00;0.00;0.62;2.80;1.70;;;24.90;22.20;;;;;;2243494;61;20368;-59
2022/05/08 09:33:23;0.00;0.00;0.62;0.00;0.00;0.62;4.63;2.40;;;25.00;22.20;;;;;;2244320;61;20408;-68
2022/05/08 09:36:09;0.00;0.00;0.62;0.00;0.00;0.62;4.00;2.10;;;25.00;22.10;;;;;;2246429;61;20917;-65
2022/05/08 09:38:56;0.00;0.00;0.62;0.00;0.00;0.62;4.50;2.07;;;25.00;22.20;;;;;;2246182;61;20781;-61
2022/05/08 09:41:43;0.00;0.00;0.62;0.00;0.00;0.62;3.90;1.90;;;25.00;22.30;;;;;;2244778;61;20412;-61
2022/05/08 09:44:28;0.00;0.00;0.62;0.00;0.00;0.62;4.80;2.10;;;25.10;22.30;;;;;;2244946;61;20900;-57
2022/05/08 09:47:40;0.00;0.00;0.62;0.00;0.00;0.62;4.30;1.87;;;25.10;22.30;;;;;;2245300;61;20363;-67
2022/05/08 09:50:26;0.00;0.00;0.62;0.00;0.00;0.62;3.43;1.60;;;25.10;22.30;;;;;;2244405;61;20368;-65
2022/05/08 09:53:11;0.00;0.00;0.62;0.00;0.00;0.62;3.73;1.80;;;25.10;22.10;;;;;;2246691;61;20419;-55
2022/05/08 09:55:58;0.00;0.00;0.62;0.00;0.00;0.62;2.90;1.63;;;25.20;22.20;;;;;;2249883;61;20499;-66
2022/05/08 09:58:45;0.00;0.00;0.62;0.00;0.00;0.62;2.90;1.53;;;25.20;22.20;;;;;;2249239;61;20364;-60
2022/05/08 10:01:32;0.00;0.00;0.62;0.00;0.00;0.62;4.07;1.90;;;25.20;22.20;;;;;;2248861;61;20506;-63
2022/05/08 10:04:17;0.00;0.00;0.62;0.00;0.00;0.62;3.23;2.10;;;25.30;22.30;;;;;;2249937;61;20434;-55
2022/05/08 10:07:03;0.00;0.00;0.62;0.00;0.00;0.62;5.00;2.10;;;25.30;22.30;;;;;;2250023;61;20367;-59
2022/05/08 10:16:04;0.00;0.00;0.62;0.00;0.00;0.62;5.30;2.83;;;25.40;21.80;;;;;;2249402;61;20375;-56
2022/05/08 10:18:49;0.00;0.00;0.62;0.00;0.00;0.62;4.37;2.40;;;25.40;21.60;;;;;;2249399;61;20371;-59
2022/05/08 10:22:03;0.00;0.00;0.62;0.00;0.00;0.62;3.83;2.50;;;25.40;21.50;;;;;;2249106;61;20923;-60
2022/05/08 10:24:51;0.00;0.00;0.62;0.00;0.00;0.62;3.67;2.30;;;25.40;21.50;;;;;;2249319;61;20423;-60
2022/05/08 10:27:37;0.00;0.00;0.62;0.00;0.00;0.62;4.87;2.73;;;25.40;21.50;;;;;;2251725;61;20359;-57
2022/05/08 10:30:23;0.00;0.00;0.62;0.00;0.00;0.62;3.10;2.40;;;25.40;21.40;;;;;;2248613;61;20411;-65
2022/05/08 10:33:09;0.00;0.00;0.62;0.00;0.00;0.62;5.00;2.13;;;25.40;21.30;;;;;;2248786;61;20383;-56
2022/05/08 10:36:07;0.00;0.00;0.62;0.00;0.00;0.62;5.00;2.27;;;25.40;21.30;;;;;;2248801;61;20928;-65
2022/05/08 10:38:53;0.00;0.00;0.62;0.00;0.00;0.62;6.20;1.97;;;25.40;21.20;;;;;;2249057;61;20418;-66
2022/05/08 10:41:44;0.00;0.00;0.62;0.00;0.00;0.62;4.87;2.00;;;25.40;21.30;;;;;;2248533;61;20687;-58
2022/05/08 10:44:36;0.00;0.00;0.62;0.00;0.00;0.62;4.90;1.73;;;25.40;21.40;;;;;;2248906;61;20419;-61
2022/05/08 10:47:41;0.00;0.00;0.62;0.00;0.00;0.62;3.43;1.60;;;25.40;21.40;;;;;;2249445;61;20475;-65
2022/05/08 10:50:27;0.00;0.00;0.62;0.00;0.00;0.62;3.67;1.70;;;25.50;21.50;;;;;;2248145;61;20364;-56
2022/05/08 10:53:27;0.00;0.00;0.62;0.00;0.00;0.62;2.97;2.17;;;25.50;21.50;;;;;;2248225;61;20487;-60
2022/05/08 10:56:13;0.00;0.00;0.62;0.00;0.00;0.62;4.20;2.13;;;25.50;21.60;;;;;;2248847;61;20360;-58
2022/05/08 10:58:59;0.00;0.00;0.62;0.00;0.00;0.62;6.80;1.93;;;25.50;21.70;;;;;;2248133;61;20368;-55
2022/05/08 11:01:50;0.00;0.00;0.62;0.00;0.00;0.62;4.50;1.83;;;25.50;21.70;;;;;;2248454;61;20395;-58
2022/05/08 11:04:52;0.00;0.00;0.62;0.00;0.00;0.62;2.63;1.93;;;25.60;21.80;;;;;;2248426;61;20380;-56
2022/05/08 11:07:46;0.00;0.00;0.62;0.00;0.00;0.62;2.57;1.50;;;25.60;21.80;;;;;;2248294;61;20410;-58
2022/05/08 11:10:34;0.00;0.00;0.62;0.00;0.00;0.62;4.27;1.63;;;25.60;21.80;;;;;;2248363;61;20796;-54
2022/05/08 11:13:18;0.00;0.00;0.62;0.00;0.00;0.62;2.07;1.30;;;25.70;21.90;;;;;;2248039;61;20427;-55
2022/05/08 11:16:03;0.00;0.00;0.62;0.00;0.00;0.62;3.70;1.73;;;25.70;21.90;;;;;;2248508;61;20383;-62
2022/05/08 11:18:48;0.00;0.00;0.62;0.00;0.00;0.62;2.13;1.33;;;25.70;22.00;;;;;;2248521;61;20861;-59
2022/05/08 11:21:33;0.00;0.00;0.62;0.00;0.00;0.62;2.30;1.70;;;25.70;22.00;;;;;;2247853;61;20866;-59